Draper, South Dakota
Current Conditions -  °F | °C
As of 8:53 PM on Friday 21 Nov 2014 (Local Time) from KPIR Reporting Station
Clear Clear  
Wind Chill: 27°   Ceiling: Unl
Heat Index: 33°   Visibility: 10mi
Dew Point: 28°   Wind: 7mph
Humidity: 82%   Direction: 220°SW
Pressure: 29.81"   Gusts: NA
Location:  43.93°N, 100.54°W
Report Text: KPIR 220253Z AUTO 22006KT 10SM CLR 01/M02 A2981 RMK AO2 SLP114 T00061022 56004
Loading
Personal Weather Stations






























Interactive Weather Map New forecast layout! Learn more

10-Day Weather Forecast

Advertisements
Track Severe Weather on mobile